Terminal Aerodrome Forecast
Issued by NWS

Home | Current Version | Previous Version | Text Only | Print | Product List | Glossary On
Versions: 1 2 3 4 5 6 7 8 9 10 11 12 13 14 15
311
FTUS41 KBTV 250539
TAFMSS
TAF
KMSS 250539Z 2506/2606 00000KT P6SM SKC
      TEMPO 2506/2510 1SM BR SCT001
     FM251200 24005KT P6SM SKC=

USA.gov is the U.S. government's official web portal to all federal, state and local government web resources and services.